sensor_id;sensor_type;location;lat;lon;timestamp;pressure;altitude;pressure_sealevel;temperature
15709;BMP180;7954;51.914;8.420;2023-07-13T00:00:02;100143.50;;;24.46
15709;BMP180;7954;51.914;8.420;2023-07-13T00:02:31;100150.19;;;24.44
15709;BMP180;7954;51.914;8.420;2023-07-13T00:05:01;100154.91;;;24.33
15709;BMP180;7954;51.914;8.420;2023-07-13T00:07:30;100155.16;;;24.27
15709;BMP180;7954;51.914;8.420;2023-07-13T00:09:59;100152.16;;;24.31
15709;BMP180;7954;51.914;8.420;2023-07-13T00:12:29;100165.88;;;24.39
15709;BMP180;7954;51.914;8.420;2023-07-13T00:15:00;100166.84;;;24.39
15709;BMP180;7954;51.914;8.420;2023-07-13T00:17:28;100159.81;;;24.38
15709;BMP180;7954;51.914;8.420;2023-07-13T00:19:57;100173.38;;;24.29
15709;BMP180;7954;51.914;8.420;2023-07-13T00:22:27;100167.00;;;24.25
15709;BMP180;7954;51.914;8.420;2023-07-13T00:24:56;100169.47;;;24.32
15709;BMP180;7954;51.914;8.420;2023-07-13T00:27:24;100178.06;;;24.24
15709;BMP180;7954;51.914;8.420;2023-07-13T00:29:53;100173.56;;;24.30
15709;BMP180;7954;51.914;8.420;2023-07-13T00:32:21;100185.47;;;24.21
15709;BMP180;7954;51.914;8.420;2023-07-13T00:34:49;100178.50;;;24.20
15709;BMP180;7954;51.914;8.420;2023-07-13T00:37:17;100174.22;;;24.21
15709;BMP180;7954;51.914;8.420;2023-07-13T00:39:46;100183.66;;;24.20
15709;BMP180;7954;51.914;8.420;2023-07-13T00:42:15;100177.91;;;24.23
15709;BMP180;7954;51.914;8.420;2023-07-13T00:45:01;100172.16;;;24.25
15709;BMP180;7954;51.914;8.420;2023-07-13T00:47:29;100175.56;;;24.17
15709;BMP180;7954;51.914;8.420;2023-07-13T00:49:57;100164.81;;;24.21
15709;BMP180;7954;51.914;8.420;2023-07-13T00:52:26;100172.66;;;24.14
15709;BMP180;7954;51.914;8.420;2023-07-13T00:54:56;100175.66;;;24.10
15709;BMP180;7954;51.914;8.420;2023-07-13T00:57:26;100163.91;;;24.21
15709;BMP180;7954;51.914;8.420;2023-07-13T00:59:57;100174.06;;;24.19
15709;BMP180;7954;51.914;8.420;2023-07-13T01:02:28;100171.38;;;24.26
15709;BMP180;7954;51.914;8.420;2023-07-13T01:04:56;100167.25;;;24.35
15709;BMP180;7954;51.914;8.420;2023-07-13T01:07:25;100166.09;;;24.40
15709;BMP180;7954;51.914;8.420;2023-07-13T01:09:53;100166.47;;;24.36
15709;BMP180;7954;51.914;8.420;2023-07-13T01:12:22;100164.28;;;24.39
15709;BMP180;7954;51.914;8.420;2023-07-13T01:14:56;100173.06;;;24.41
15709;BMP180;7954;51.914;8.420;2023-07-13T01:17:24;100167.16;;;24.42
15709;BMP180;7954;51.914;8.420;2023-07-13T01:19:52;100166.44;;;24.43
15709;BMP180;7954;51.914;8.420;2023-07-13T01:22:22;100166.09;;;24.40
15709;BMP180;7954;51.914;8.420;2023-07-13T01:24:52;100174.06;;;24.35
15709;BMP180;7954;51.914;8.420;2023-07-13T01:27:23;100171.28;;;24.40
15709;BMP180;7954;51.914;8.420;2023-07-13T01:29:52;100171.47;;;24.35
15709;BMP180;7954;51.914;8.420;2023-07-13T01:32:28;100174.31;;;24.14
15709;BMP180;7954;51.914;8.420;2023-07-13T01:34:58;100169.91;;;24.13
15709;BMP180;7954;51.914;8.420;2023-07-13T01:37:27;100172.31;;;24.11
15709;BMP180;7954;51.914;8.420;2023-07-13T01:40:03;100178.13;;;23.87
15709;BMP180;7954;51.914;8.420;2023-07-13T01:42:31;100179.97;;;23.65
15709;BMP180;7954;51.914;8.420;2023-07-13T01:44:59;100182.69;;;23.74
15709;BMP180;7954;51.914;8.420;2023-07-13T01:47:27;100177.38;;;23.65
15709;BMP180;7954;51.914;8.420;2023-07-13T01:49:57;100185.09;;;23.72
15709;BMP180;7954;51.914;8.420;2023-07-13T01:52:27;100177.84;;;23.77
15709;BMP180;7954;51.914;8.420;2023-07-13T01:54:54;100176.06;;;23.91
15709;BMP180;7954;51.914;8.420;2023-07-13T01:57:22;100178.97;;;24.09
15709;BMP180;7954;51.914;8.420;2023-07-13T01:59:50;100175.56;;;24.02
15709;BMP180;7954;51.914;8.420;2023-07-13T02:02:18;100176.16;;;24.15
15709;BMP180;7954;51.914;8.420;2023-07-13T02:04:46;100168.41;;;23.99
15709;BMP180;7954;51.914;8.420;2023-07-13T02:07:14;100170.63;;;23.96
15709;BMP180;7954;51.914;8.420;2023-07-13T02:09:45;100175.16;;;23.91
15709;BMP180;7954;51.914;8.420;2023-07-13T02:12:13;100178.94;;;23.79
15709;BMP180;7954;51.914;8.420;2023-07-13T02:14:41;100180.84;;;23.73
15709;BMP180;7954;51.914;8.420;2023-07-13T02:17:09;100180.84;;;23.73
15709;BMP180;7954;51.914;8.420;2023-07-13T02:19:37;100182.09;;;23.76
15709;BMP180;7954;51.914;8.420;2023-07-13T02:22:05;100183.59;;;23.74
15709;BMP180;7954;51.914;8.420;2023-07-13T02:24:34;100179.78;;;23.71
15709;BMP180;7954;51.914;8.420;2023-07-13T02:27:04;100191.22;;;23.66
15709;BMP180;7954;51.914;8.420;2023-07-13T02:29:32;100190.16;;;23.57
15709;BMP180;7954;51.914;8.420;2023-07-13T02:32:00;100184.69;;;23.54
15709;BMP180;7954;51.914;8.420;2023-07-13T02:34:28;100188.25;;;23.47
15709;BMP180;7954;51.914;8.420;2023-07-13T02:36:58;100189.16;;;23.48
15709;BMP180;7954;51.914;8.420;2023-07-13T02:39:26;100190.66;;;23.46
15709;BMP180;7954;51.914;8.420;2023-07-13T02:41:54;100190.84;;;23.47
15709;BMP180;7954;51.914;8.420;2023-07-13T02:44:24;100182.94;;;23.46
15709;BMP180;7954;51.914;8.420;2023-07-13T02:46:52;100179.09;;;23.42
15709;BMP180;7954;51.914;8.420;2023-07-13T02:49:19;100176.94;;;23.38
15709;BMP180;7954;51.914;8.420;2023-07-13T02:51:48;100182.88;;;23.30
15709;BMP180;7954;51.914;8.420;2023-07-13T02:54:16;100181.03;;;23.29
15709;BMP180;7954;51.914;8.420;2023-07-13T02:56:44;100191.25;;;23.21
15709;BMP180;7954;51.914;8.420;2023-07-13T02:59:12;100195.63;;;23.22
15709;BMP180;7954;51.914;8.420;2023-07-13T03:01:41;100197.72;;;23.18
15709;BMP180;7954;51.914;8.420;2023-07-13T03:04:09;100198.84;;;23.13
15709;BMP180;7954;51.914;8.420;2023-07-13T03:06:37;100196.88;;;23.03
15709;BMP180;7954;51.914;8.420;2023-07-13T03:09:05;100200.97;;;22.94
15709;BMP180;7954;51.914;8.420;2023-07-13T03:11:34;100199.53;;;22.89
15709;BMP180;7954;51.914;8.420;2023-07-13T03:14:02;100209.28;;;22.85
15709;BMP180;7954;51.914;8.420;2023-07-13T03:16:30;100204.69;;;22.82
15709;BMP180;7954;51.914;8.420;2023-07-13T03:18:59;100208.78;;;22.80
15709;BMP180;7954;51.914;8.420;2023-07-13T03:21:28;100214.34;;;22.69
15709;BMP180;7954;51.914;8.420;2023-07-13T03:23:55;100208.81;;;22.66
15709;BMP180;7954;51.914;8.420;2023-07-13T03:26:23;100218.06;;;22.64
15709;BMP180;7954;51.914;8.420;2023-07-13T03:28:51;100214.78;;;22.59
15709;BMP180;7954;51.914;8.420;2023-07-13T03:31:21;100211.09;;;22.57
15709;BMP180;7954;51.914;8.420;2023-07-13T03:33:49;100219.91;;;22.59
15709;BMP180;7954;51.914;8.420;2023-07-13T03:36:21;100222.50;;;22.59
15709;BMP180;7954;51.914;8.420;2023-07-13T03:38:51;100220.09;;;22.60
15709;BMP180;7954;51.914;8.420;2023-07-13T03:41:20;100234.66;;;22.53
15709;BMP180;7954;51.914;8.420;2023-07-13T03:43:47;100226.59;;;22.50
15709;BMP180;7954;51.914;8.420;2023-07-13T03:46:16;100237.84;;;22.43
15709;BMP180;7954;51.914;8.420;2023-07-13T03:48:46;100240.97;;;22.41
15709;BMP180;7954;51.914;8.420;2023-07-13T03:51:16;100230.47;;;22.39
15709;BMP180;7954;51.914;8.420;2023-07-13T03:53:47;100243.91;;;22.37
15709;BMP180;7954;51.914;8.420;2023-07-13T03:56:18;100234.53;;;22.37
15709;BMP180;7954;51.914;8.420;2023-07-13T03:58:48;100238.00;;;22.38
15709;BMP180;7954;51.914;8.420;2023-07-13T04:01:18;100240.59;;;22.38
15709;BMP180;7954;51.914;8.420;2023-07-13T04:03:46;100236.00;;;22.35
15709;BMP180;7954;51.914;8.420;2023-07-13T04:06:17;100242.44;;;22.32
15709;BMP180;7954;51.914;8.420;2023-07-13T04:08:52;100249.25;;;22.38
15709;BMP180;7954;51.914;8.420;2023-07-13T04:11:21;100254.41;;;22.38
15709;BMP180;7954;51.914;8.420;2023-07-13T04:13:50;100249.25;;;22.38
15709;BMP180;7954;51.914;8.420;2023-07-13T04:16:19;100244.22;;;22.47
15709;BMP180;7954;51.914;8.420;2023-07-13T04:18:48;100249.94;;;22.44
15709;BMP180;7954;51.914;8.420;2023-07-13T04:21:21;100250.81;;;22.52
15709;BMP180;7954;51.914;8.420;2023-07-13T04:23:51;100260.78;;;22.49
15709;BMP180;7954;51.914;8.420;2023-07-13T04:26:19;100263.91;;;22.46
15709;BMP180;7954;51.914;8.420;2023-07-13T04:28:49;100258.38;;;22.50
15709;BMP180;7954;51.914;8.420;2023-07-13T04:31:17;100264.47;;;22.51
15709;BMP180;7954;51.914;8.420;2023-07-13T04:33:45;100264.97;;;22.55
15709;BMP180;7954;51.914;8.420;2023-07-13T04:36:15;100261.84;;;22.58
15709;BMP180;7954;51.914;8.420;2023-07-13T04:38:44;100273.59;;;22.63
15709;BMP180;7954;51.914;8.420;2023-07-13T04:41:14;100268.28;;;22.61
15709;BMP180;7954;51.914;8.420;2023-07-13T04:43:42;100266.81;;;22.56
15709;BMP180;7954;51.914;8.420;2023-07-13T04:46:12;100271.41;;;22.59
15709;BMP180;7954;51.914;8.420;2023-07-13T04:48:41;100265.69;;;22.61
15709;BMP180;7954;51.914;8.420;2023-07-13T04:51:09;100263.69;;;22.59
15709;BMP180;7954;51.914;8.420;2023-07-13T04:53:37;100269.00;;;22.60
15709;BMP180;7954;51.914;8.420;2023-07-13T04:56:05;100267.53;;;22.62
15709;BMP180;7954;51.914;8.420;2023-07-13T04:58:35;100269.38;;;22.63
15709;BMP180;7954;51.914;8.420;2023-07-13T05:01:04;100266.59;;;22.62
15709;BMP180;7954;51.914;8.420;2023-07-13T05:03:33;100267.31;;;22.67
15709;BMP180;7954;51.914;8.420;2023-07-13T05:06:03;100267.31;;;22.67
15709;BMP180;7954;51.914;8.420;2023-07-13T05:08:32;100269.47;;;22.78
15709;BMP180;7954;51.914;8.420;2023-07-13T05:11:01;100274.59;;;22.85
15709;BMP180;7954;51.914;8.420;2023-07-13T05:13:29;100271.31;;;22.86
15709;BMP180;7954;51.914;8.420;2023-07-13T05:16:01;100270.50;;;22.94
15709;BMP180;7954;51.914;8.420;2023-07-13T05:18:30;100267.78;;;23.22
15709;BMP180;7954;51.914;8.420;2023-07-13T05:21:00;100268.00;;;23.68
15709;BMP180;7954;51.914;8.420;2023-07-13T05:23:29;100263.88;;;23.99
15709;BMP180;7954;51.914;8.420;2023-07-13T05:25:57;100259.25;;;24.19
15709;BMP180;7954;51.914;8.420;2023-07-13T05:28:25;100267.56;;;24.39
15709;BMP180;7954;51.914;8.420;2023-07-13T05:30:54;100262.53;;;24.56
15709;BMP180;7954;51.914;8.420;2023-07-13T05:33:24;100269.06;;;24.53
15709;BMP180;7954;51.914;8.420;2023-07-13T05:35:53;100265.59;;;24.76
15709;BMP180;7954;51.914;8.420;2023-07-13T05:38:21;100267.59;;;24.94
15709;BMP180;7954;51.914;8.420;2023-07-13T05:40:49;100267.75;;;25.11
15709;BMP180;7954;51.914;8.420;2023-07-13T05:43:18;100274.69;;;24.88
15709;BMP180;7954;51.914;8.420;2023-07-13T05:45:45;100282.53;;;24.65
15709;BMP180;7954;51.914;8.420;2023-07-13T05:48:13;100285.16;;;24.28
15709;BMP180;7954;51.914;8.420;2023-07-13T05:50:43;100289.91;;;23.94
15709;BMP180;7954;51.914;8.420;2023-07-13T05:53:11;100287.78;;;24.05
15709;BMP180;7954;51.914;8.420;2023-07-13T05:55:41;100286.13;;;24.21
15709;BMP180;7954;51.914;8.420;2023-07-13T05:58:10;100282.66;;;24.21
15709;BMP180;7954;51.914;8.420;2023-07-13T06:00:38;100287.75;;;24.28
15709;BMP180;7954;51.914;8.420;2023-07-13T06:03:08;100291.38;;;24.14
15709;BMP180;7954;51.914;8.420;2023-07-13T06:05:36;100301.22;;;24.25
15709;BMP180;7954;51.914;8.420;2023-07-13T06:08:06;100306.72;;;24.28
15709;BMP180;7954;51.914;8.420;2023-07-13T06:10:35;100303.03;;;24.11
15709;BMP180;7954;51.914;8.420;2023-07-13T06:13:04;100303.50;;;24.00
15709;BMP180;7954;51.914;8.420;2023-07-13T06:15:32;100311.94;;;24.21
15709;BMP180;7954;51.914;8.420;2023-07-13T06:18:00;100302.56;;;24.22
15709;BMP180;7954;51.914;8.420;2023-07-13T06:20:28;100309.63;;;24.16
15709;BMP180;7954;51.914;8.420;2023-07-13T06:22:57;100306.72;;;24.28
15709;BMP180;7954;51.914;8.420;2023-07-13T06:25:27;100309.47;;;24.30
15709;BMP180;7954;51.914;8.420;2023-07-13T06:27:55;100301.88;;;24.16
15709;BMP180;7954;51.914;8.420;2023-07-13T06:30:23;100306.81;;;24.37
15709;BMP180;7954;51.914;8.420;2023-07-13T06:32:52;100307.88;;;24.23
15709;BMP180;7954;51.914;8.420;2023-07-13T06:35:20;100308.47;;;24.21
15709;BMP180;7954;51.914;8.420;2023-07-13T06:37:48;100311.59;;;24.03
15709;BMP180;7954;51.914;8.420;2023-07-13T06:40:16;100312.06;;;23.92
15709;BMP180;7954;51.914;8.420;2023-07-13T06:42:46;100312.34;;;24.17
15709;BMP180;7954;51.914;8.420;2023-07-13T06:45:14;100304.47;;;24.31
15709;BMP180;7954;51.914;8.420;2023-07-13T06:47:42;100301.22;;;24.25
15709;BMP180;7954;51.914;8.420;2023-07-13T06:50:10;100309.19;;;24.20
15709;BMP180;7954;51.914;8.420;2023-07-13T06:52:38;100313.09;;;24.16
15709;BMP180;7954;51.914;8.420;2023-07-13T06:55:07;100311.28;;;24.15
15709;BMP180;7954;51.914;8.420;2023-07-13T06:57:35;100307.47;;;24.27
15709;BMP180;7954;51.914;8.420;2023-07-13T07:00:06;100310.88;;;24.19
15709;BMP180;7954;51.914;8.420;2023-07-13T07:02:36;100312.00;;;24.37
15709;BMP180;7954;51.914;8.420;2023-07-13T07:05:04;100310.59;;;24.47
15709;BMP180;7954;51.914;8.420;2023-07-13T07:07:33;100306.22;;;24.62
15709;BMP180;7954;51.914;8.420;2023-07-13T07:10:00;100320.44;;;24.89
15709;BMP180;7954;51.914;8.420;2023-07-13T07:12:29;100323.38;;;24.76
15709;BMP180;7954;51.914;8.420;2023-07-13T07:14:57;100329.69;;;24.87
15709;BMP180;7954;51.914;8.420;2023-07-13T07:17:27;100326.81;;;25.15
15709;BMP180;7954;51.914;8.420;2023-07-13T07:19:55;100313.50;;;25.27
15709;BMP180;7954;51.914;8.420;2023-07-13T07:22:23;100322.19;;;25.51
15709;BMP180;7954;51.914;8.420;2023-07-13T07:24:54;100314.31;;;25.58
15709;BMP180;7954;51.914;8.420;2023-07-13T07:27:22;100320.38;;;25.50
15709;BMP180;7954;51.914;8.420;2023-07-13T07:29:53;100318.69;;;25.51
15709;BMP180;7954;51.914;8.420;2023-07-13T07:32:43;100312.50;;;25.57
15709;BMP180;7954;51.914;8.420;2023-07-13T07:35:14;100316.41;;;25.54
15709;BMP180;7954;51.914;8.420;2023-07-13T07:37:42;100316.72;;;25.72
15709;BMP180;7954;51.914;8.420;2023-07-13T07:40:13;100317.03;;;25.99
15709;BMP180;7954;51.914;8.420;2023-07-13T07:42:44;100323.44;;;26.35
15709;BMP180;7954;51.914;8.420;2023-07-13T07:45:13;100316.03;;;26.55
15709;BMP180;7954;51.914;8.420;2023-07-13T07:47:43;100323.06;;;26.72
15709;BMP180;7954;51.914;8.420;2023-07-13T07:50:11;100321.97;;;26.70
15709;BMP180;7954;51.914;8.420;2023-07-13T07:52:39;100315.41;;;26.57
15709;BMP180;7954;51.914;8.420;2023-07-13T07:55:07;100321.22;;;26.55
15709;BMP180;7954;51.914;8.420;2023-07-13T07:57:38;100319.56;;;26.72
15709;BMP180;7954;51.914;8.420;2023-07-13T08:00:10;100313.78;;;26.91
15709;BMP180;7954;51.914;8.420;2023-07-13T08:02:43;100327.66;;;26.83
15709;BMP180;7954;51.914;8.420;2023-07-13T08:05:14;100318.78;;;26.64
15709;BMP180;7954;51.914;8.420;2023-07-13T08:07:45;100321.50;;;26.58
15709;BMP180;7954;51.914;8.420;2023-07-13T08:10:13;100309.31;;;26.65
15709;BMP180;7954;51.914;8.420;2023-07-13T08:12:41;100316.66;;;26.77
15709;BMP180;7954;51.914;8.420;2023-07-13T08:15:28;100308.44;;;26.90
15709;BMP180;7954;51.914;8.420;2023-07-13T08:17:58;100311.84;;;26.97
15709;BMP180;7954;51.914;8.420;2023-07-13T08:20:26;100313.03;;;27.34
15709;BMP180;7954;51.914;8.420;2023-07-13T08:22:55;100306.47;;;27.29
15709;BMP180;7954;51.914;8.420;2023-07-13T08:25:23;100326.47;;;27.05
15709;BMP180;7954;51.914;8.420;2023-07-13T08:27:51;100313.50;;;27.05
15709;BMP180;7954;51.914;8.420;2023-07-13T08:30:19;100327.69;;;27.26
15709;BMP180;7954;51.914;8.420;2023-07-13T08:32:47;100318.81;;;27.57
15709;BMP180;7954;51.914;8.420;2023-07-13T08:35:16;100313.34;;;27.29
15709;BMP180;7954;51.914;8.420;2023-07-13T08:37:44;100326.66;;;27.07
15709;BMP180;7954;51.914;8.420;2023-07-13T08:40:12;100324.81;;;27.14
15709;BMP180;7954;51.914;8.420;2023-07-13T08:42:45;100321.28;;;27.39
15709;BMP180;7954;51.914;8.420;2023-07-13T08:45:20;100311.91;;;27.75
15709;BMP180;7954;51.914;8.420;2023-07-13T08:47:52;100307.50;;;27.74
15709;BMP180;7954;51.914;8.420;2023-07-13T08:50:26;100311.19;;;27.42
15709;BMP180;7954;51.914;8.420;2023-07-13T08:52:56;100320.34;;;27.30
15709;BMP180;7954;51.914;8.420;2023-07-13T08:55:27;100319.72;;;27.41
15709;BMP180;7954;51.914;8.420;2023-07-13T08:58:01;100332.72;;;27.32
15709;BMP180;7954;51.914;8.420;2023-07-13T09:00:35;100320.97;;;27.61
15709;BMP180;7954;51.914;8.420;2023-07-13T09:03:05;100321.84;;;27.45
15709;BMP180;7954;51.914;8.420;2023-07-13T09:05:42;100315.00;;;27.62
15709;BMP180;7954;51.914;8.420;2023-07-13T09:08:29;100307.75;;;27.85
15709;BMP180;7954;51.914;8.420;2023-07-13T09:11:06;100319.13;;;27.69
15709;BMP180;7954;51.914;8.420;2023-07-13T09:13:43;100313.31;;;27.71
15709;BMP180;7954;51.914;8.420;2023-07-13T09:16:14;100313.47;;;28.08
15709;BMP180;7954;51.914;8.420;2023-07-13T09:18:44;100317.50;;;27.96
15709;BMP180;7954;51.914;8.420;2023-07-13T09:21:17;100307.13;;;28.31
15709;BMP180;7954;51.914;8.420;2023-07-13T09:23:47;100317.63;;;28.41
15709;BMP180;7954;51.914;8.420;2023-07-13T09:26:18;100312.22;;;28.13
15709;BMP180;7954;51.914;8.420;2023-07-13T09:28:50;100305.94;;;27.76
15709;BMP180;7954;51.914;8.420;2023-07-13T09:31:24;100301.19;;;27.89
15709;BMP180;7954;51.914;8.420;2023-07-13T09:33:53;100310.94;;;27.99
15709;BMP180;7954;51.914;8.420;2023-07-13T09:36:24;100307.34;;;28.24
15709;BMP180;7954;51.914;8.420;2023-07-13T09:38:59;100304.16;;;28.18
15709;BMP180;7954;51.914;8.420;2023-07-13T09:41:35;100308.88;;;27.79
15709;BMP180;7954;51.914;8.420;2023-07-13T09:44:09;100317.28;;;27.76
15709;BMP180;7954;51.914;8.420;2023-07-13T09:46:39;100314.78;;;27.86
15709;BMP180;7954;51.914;8.420;2023-07-13T09:49:09;100319.38;;;27.89
15709;BMP180;7954;51.914;8.420;2023-07-13T09:51:40;100312.69;;;28.26
15709;BMP180;7954;51.914;8.420;2023-07-13T09:54:19;100308.09;;;28.77
15709;BMP180;7954;51.914;8.420;2023-07-13T09:56:47;100306.16;;;29.11
15709;BMP180;7954;51.914;8.420;2023-07-13T09:59:19;100295.25;;;28.97
15709;BMP180;7954;51.914;8.420;2023-07-13T10:01:47;100318.31;;;28.84
15709;BMP180;7954;51.914;8.420;2023-07-13T10:04:18;100309.16;;;29.16
15709;BMP180;7954;51.914;8.420;2023-07-13T10:06:48;100307.44;;;29.06
15709;BMP180;7954;51.914;8.420;2023-07-13T10:09:18;100314.78;;;29.02
15709;BMP180;7954;51.914;8.420;2023-07-13T10:11:46;100306.47;;;28.87
15709;BMP180;7954;51.914;8.420;2023-07-13T10:14:16;100300.56;;;28.80
15709;BMP180;7954;51.914;8.420;2023-07-13T10:16:46;100321.13;;;29.14
15709;BMP180;7954;51.914;8.420;2023-07-13T10:19:19;100302.19;;;29.43
15709;BMP180;7954;51.914;8.420;2023-07-13T10:21:53;100311.00;;;29.17
15709;BMP180;7954;51.914;8.420;2023-07-13T10:24:23;100311.91;;;29.35
15709;BMP180;7954;51.914;8.420;2023-07-13T10:26:55;100314.31;;;29.71
15709;BMP180;7954;51.914;8.420;2023-07-13T10:29:27;100310.97;;;29.82
15709;BMP180;7954;51.914;8.420;2023-07-13T10:31:56;100315.84;;;30.35
15709;BMP180;7954;51.914;8.420;2023-07-13T10:34:24;100300.09;;;30.44
15709;BMP180;7954;51.914;8.420;2023-07-13T10:36:54;100311.34;;;30.43
15709;BMP180;7954;51.914;8.420;2023-07-13T10:39:25;100303.97;;;30.29
15709;BMP180;7954;51.914;8.420;2023-07-13T10:41:55;100311.00;;;30.30
15709;BMP180;7954;51.914;8.420;2023-07-13T10:44:26;100309.47;;;30.42
15709;BMP180;7954;51.914;8.420;2023-07-13T10:46:57;100323.94;;;30.38
15709;BMP180;7954;51.914;8.420;2023-07-13T10:49:28;100304.84;;;30.67
15709;BMP180;7954;51.914;8.420;2023-07-13T10:51:59;100307.34;;;30.96
15709;BMP180;7954;51.914;8.420;2023-07-13T10:54:30;100293.31;;;30.95
15709;BMP180;7954;51.914;8.420;2023-07-13T10:57:15;100305.75;;;30.98
15709;BMP180;7954;51.914;8.420;2023-07-13T10:59:47;100299.06;;;30.91
15709;BMP180;7954;51.914;8.420;2023-07-13T11:02:24;100310.41;;;31.12
15709;BMP180;7954;51.914;8.420;2023-07-13T11:04:54;100312.38;;;30.84
15709;BMP180;7954;51.914;8.420;2023-07-13T11:07:27;100320.72;;;30.60
15709;BMP180;7954;51.914;8.420;2023-07-13T11:09:56;100306.94;;;30.13
15709;BMP180;7954;51.914;8.420;2023-07-13T11:12:49;100336.19;;;29.91
15709;BMP180;7954;51.914;8.420;2023-07-13T11:15:30;100326.97;;;29.94
15709;BMP180;7954;51.914;8.420;2023-07-13T11:18:03;100319.69;;;30.00
15709;BMP180;7954;51.914;8.420;2023-07-13T11:20:34;100316.97;;;30.19
15709;BMP180;7954;51.914;8.420;2023-07-13T11:23:30;100305.81;;;30.40
15709;BMP180;7954;51.914;8.420;2023-07-13T11:26:00;100308.22;;;30.47
15709;BMP180;7954;51.914;8.420;2023-07-13T11:28:31;100311.88;;;30.59
15709;BMP180;7954;51.914;8.420;2023-07-13T11:31:12;100315.19;;;30.28
15709;BMP180;7954;51.914;8.420;2023-07-13T11:33:51;100324.41;;;30.14
15709;BMP180;7954;51.914;8.420;2023-07-13T11:36:22;100310.97;;;30.10
15709;BMP180;7954;51.914;8.420;2023-07-13T11:38:59;100318.81;;;30.30
15709;BMP180;7954;51.914;8.420;2023-07-13T11:41:31;100318.59;;;29.89
15709;BMP180;7954;51.914;8.420;2023-07-13T11:44:06;100321.75;;;29.76
15709;BMP180;7954;51.914;8.420;2023-07-13T11:46:35;100318.13;;;29.84
15709;BMP180;7954;51.914;8.420;2023-07-13T11:49:05;100324.41;;;30.14
15709;BMP180;7954;51.914;8.420;2023-07-13T11:51:35;100319.41;;;30.46
15709;BMP180;7954;51.914;8.420;2023-07-13T11:54:15;100314.84;;;30.43
15709;BMP180;7954;51.914;8.420;2023-07-13T11:56:48;100305.38;;;30.73
15709;BMP180;7954;51.914;8.420;2023-07-13T11:59:17;100315.25;;;30.58
15709;BMP180;7954;51.914;8.420;2023-07-13T12:01:51;100330.03;;;30.39
15709;BMP180;7954;51.914;8.420;2023-07-13T12:04:23;100289.31;;;30.99
15709;BMP180;7954;51.914;8.420;2023-07-13T12:06:57;100307.78;;;31.22
15709;BMP180;7954;51.914;8.420;2023-07-13T12:09:28;100294.41;;;30.97
15709;BMP180;7954;51.914;8.420;2023-07-13T12:11:57;100308.47;;;30.59
15709;BMP180;7954;51.914;8.420;2023-07-13T12:14:26;100304.44;;;30.05
15709;BMP180;7954;51.914;8.420;2023-07-13T12:16:55;100324.16;;;29.83
15709;BMP180;7954;51.914;8.420;2023-07-13T12:19:27;100321.25;;;30.08
15709;BMP180;7954;51.914;8.420;2023-07-13T12:21:58;100323.63;;;30.54
15709;BMP180;7954;51.914;8.420;2023-07-13T12:24:28;100308.34;;;30.78
15709;BMP180;7954;51.914;8.420;2023-07-13T12:26:59;100310.59;;;30.83
15709;BMP180;7954;51.914;8.420;2023-07-13T12:29:29;100302.22;;;30.67
15709;BMP180;7954;51.914;8.420;2023-07-13T12:31:58;100317.22;;;30.60
15709;BMP180;7954;51.914;8.420;2023-07-13T12:34:26;100326.59;;;30.78
15709;BMP180;7954;51.914;8.420;2023-07-13T12:36:56;100318.63;;;30.47
15709;BMP180;7954;51.914;8.420;2023-07-13T12:39:28;100313.44;;;30.76
15709;BMP180;7954;51.914;8.420;2023-07-13T12:42:16;100308.75;;;30.72
15709;BMP180;7954;51.914;8.420;2023-07-13T12:44:46;100296.69;;;31.24
15709;BMP180;7954;51.914;8.420;2023-07-13T12:47:15;100310.25;;;31.50
15709;BMP180;7954;51.914;8.420;2023-07-13T12:49:48;100287.16;;;31.76
15709;BMP180;7954;51.914;8.420;2023-07-13T12:52:20;100337.47;;;33.01
15709;BMP180;7954;51.914;8.420;2023-07-13T12:54:54;100337.59;;;34.40
15709;BMP180;7954;51.914;8.420;2023-07-13T12:57:38;100310.63;;;35.91
15709;BMP180;7954;51.914;8.420;2023-07-13T13:00:21;100282.19;;;37.52
15709;BMP180;7954;51.914;8.420;2023-07-13T13:02:52;100313.50;;;37.91
15709;BMP180;7954;51.914;8.420;2023-07-13T13:05:33;100331.97;;;36.49
15709;BMP180;7954;51.914;8.420;2023-07-13T13:08:04;100321.53;;;38.23
15709;BMP180;7954;51.914;8.420;2023-07-13T13:10:34;100317.94;;;38.53
15709;BMP180;7954;51.914;8.420;2023-07-13T13:13:02;100288.03;;;38.22
15709;BMP180;7954;51.914;8.420;2023-07-13T13:15:31;100320.09;;;38.44
15709;BMP180;7954;51.914;8.420;2023-07-13T13:17:59;100303.50;;;39.43
15709;BMP180;7954;51.914;8.420;2023-07-13T13:20:27;100327.19;;;38.76
15709;BMP180;7954;51.914;8.420;2023-07-13T13:22:55;100312.94;;;40.25
15709;BMP180;7954;51.914;8.420;2023-07-13T13:25:23;100265.78;;;38.80
15709;BMP180;7954;51.914;8.420;2023-07-13T13:27:53;100257.78;;;37.26
15709;BMP180;7954;51.914;8.420;2023-07-13T13:30:21;100275.53;;;37.73
15709;BMP180;7954;51.914;8.420;2023-07-13T13:32:49;100335.38;;;37.60
15709;BMP180;7954;51.914;8.420;2023-07-13T13:35:19;100263.78;;;38.45
15709;BMP180;7954;51.914;8.420;2023-07-13T13:37:48;100290.25;;;36.42
15709;BMP180;7954;51.914;8.420;2023-07-13T13:40:19;100284.47;;;34.79
15709;BMP180;7954;51.914;8.420;2023-07-13T13:42:47;100312.94;;;33.33
15709;BMP180;7954;51.914;8.420;2023-07-13T13:45:17;100304.22;;;32.56
15709;BMP180;7954;51.914;8.420;2023-07-13T13:47:47;100335.31;;;31.89
15709;BMP180;7954;51.914;8.420;2023-07-13T13:50:20;100347.72;;;31.92
15709;BMP180;7954;51.914;8.420;2023-07-13T13:52:49;100356.16;;;31.78
15709;BMP180;7954;51.914;8.420;2023-07-13T13:55:18;100353.03;;;31.72
15709;BMP180;7954;51.914;8.420;2023-07-13T13:57:47;100350.84;;;31.97
15709;BMP180;7954;51.914;8.420;2023-07-13T14:00:18;100395.44;;;32.20
15709;BMP180;7954;51.914;8.420;2023-07-13T14:02:47;100342.31;;;33.07
15709;BMP180;7954;51.914;8.420;2023-07-13T14:05:23;100343.50;;;32.03
15709;BMP180;7954;51.914;8.420;2023-07-13T14:07:54;100361.16;;;31.35
15709;BMP180;7954;51.914;8.420;2023-07-13T14:10:23;100386.06;;;30.62
15709;BMP180;7954;51.914;8.420;2023-07-13T14:12:52;100377.75;;;29.71
15709;BMP180;7954;51.914;8.420;2023-07-13T14:15:24;100414.16;;;28.62
15709;BMP180;7954;51.914;8.420;2023-07-13T14:17:53;100431.44;;;27.17
15709;BMP180;7954;51.914;8.420;2023-07-13T14:20:23;100438.03;;;26.41
15709;BMP180;7954;51.914;8.420;2023-07-13T14:22:52;100437.97;;;25.85
15709;BMP180;7954;51.914;8.420;2023-07-13T14:25:21;100449.34;;;25.78